Kota Lumayan — 9V8291 — position and weather

sailwx.info

Track history (hours):
 
Tides and Currents Weather Stations Pressure Air Temp Water Temp Dewpoint Dewpoint Depression Visibility Wind Speed Wind Dir Waves Ship Positions

Kota Lumayan

Last reported at 2017-Nov-01 21:22 UTC. Time now 2017-Nov-25 00:14 UTC.
Position N 01°14' E 103°26'.
Warning: this ship's position is 23 days out of date.

Length 247 m; draft 12.8 m.

Type: Cargo ship. MMSI: 565323000.

Date/timePositionNaut miles runAvg speedWind from/ knotsBaromVisibWave heightAir tempDewpointWater temp
2017-Nov-01 21:22N 01°14' E 103°26'615.3
2017-Nov-01 20:57N 01°13' E 103°32'714.7
2017-Nov-01 20:30N 01°11' E 103°39'713.6
2017-Nov-01 19:58N 01°09' E 103°46'613.3
2017-Nov-01 19:30N 01°12' E 103°51'3 5.8
2017-Nov-01 19:00N 01°15' E 103°51'1 2.2
2017-Nov-01 18:26N 01°16' E 103°50'9 0.5
2017-Nov-01 02:00N 01°15' E 103°59'20 7.7
2017-Oct-31 23:23N 01°19' E 104°19'3 8.8
2017-Oct-31 22:59N 01°21' E 104°22'  
2017-Oct-27 23:02N 21°59' E 113°53'015.3
2017-Oct-27 23:01N 21°59' E 113°53'1013.6
2017-Oct-27 22:15N 22°09' E 113°50'416.2
2017-Oct-27 22:00N 22°13' E 113°49'815.8
2017-Oct-27 21:30N 22°21' E 113°47'714.5
2017-Oct-27 21:00N 22°28' E 113°45'714.8
2017-Oct-27 20:30N 22°35' E 113°43'4 7.5
2017-Oct-27 20:00N 22°38' E 113°41'0 0.1
2017-Oct-27 19:25N 22°38' E 113°41'0 0.0
2017-Oct-27 18:55N 22°38' E 113°41'0 0.0
2017-Oct-27 18:28N 22°38' E 113°41'0 0.0
2017-Oct-27 17:58N 22°38' E 113°41'0 0.0
2017-Oct-27 17:28N 22°38' E 113°41'0 0.0
2017-Oct-27 16:58N 22°38' E 113°41'0 0.0
2017-Oct-27 16:28N 22°38' E 113°41'0 0.0
2017-Oct-27 15:49N 22°38' E 113°41'0 0.0
2017-Oct-27 15:25N 22°38' E 113°41'0 0.0
2017-Oct-27 14:58N 22°38' E 113°41'0 0.0
2017-Oct-27 14:28N 22°38' E 113°41'0 0.0
2017-Oct-27 13:58N 22°38' E 113°41'0 0.0
2017-Oct-27 13:28N 22°38' E 113°41'0 0.0
2017-Oct-27 12:55N 22°38' E 113°41'0 0.0
2017-Oct-27 12:28N 22°38' E 113°41'0 0.5
2017-Oct-27 12:00N 22°38' E 113°41'4 8.7
2017-Oct-27 11:30N 22°34' E 113°43'714.8
2017-Oct-27 11:00N 22°27' E 113°45'714.9
2017-Oct-27 10:30N 22°20' E 113°48'815.6
2017-Oct-27 10:00N 22°12' E 113°50'713.3
2017-Oct-27 09:30N 22°06' E 113°51'3 1.4
2017-Oct-27 07:19N 22°05' E 113°55'0 0.1
2017-Oct-27 06:10N 22°05' E 113°55'0 0.1
2017-Oct-27 05:47N 22°05' E 113°55'17 5.0
2017-Oct-27 02:25N 22°21' E 114°01'410.7
2017-Oct-27 02:00N 22°21' E 113°57'5 9.3
2017-Oct-27 01:30N 22°24' E 113°53'3 5.2
2017-Oct-27 01:01N 22°27' E 113°53'0 0.1
2017-Oct-27 00:28N 22°27' E 113°53'0 0.0
2017-Oct-26 23:58N 22°27' E 113°53'0 0.0
2017-Oct-26 23:28N 22°27' E 113°53'0 0.0
2017-Oct-26 22:58N 22°27' E 113°53'0 0.0
2017-Oct-26 22:28N 22°27' E 113°53'0 0.0
2017-Oct-26 21:58N 22°27' E 113°53'0 0.0
2017-Oct-26 21:28N 22°27' E 113°53'0 0.0
2017-Oct-26 20:58N 22°27' E 113°53'0 0.0
2017-Oct-26 20:28N 22°27' E 113°53'0 0.0
2017-Oct-26 19:58N 22°27' E 113°53'0 0.0
2017-Oct-26 19:28N 22°27' E 113°53'0 0.0
2017-Oct-26 18:58N 22°27' E 113°53'0 0.0
2017-Oct-26 18:28N 22°27' E 113°53'0 0.0
2017-Oct-26 17:58N 22°27' E 113°53'0 0.0
2017-Oct-26 17:28N 22°27' E 113°53'0 0.6
2017-Oct-26 17:00N 22°27' E 113°53'3 5.6
2017-Oct-26 16:30N 22°24' E 113°54'4 7.1
2017-Oct-26 16:00N 22°21' E 113°56'25 8.8
2017-Oct-26 13:12N 22°08' E 114°19'711.0
2017-Oct-26 12:35N 22°08' E 114°26'111.9
2017-Oct-26 12:30N 22°08' E 114°27'611.3
2017-Oct-26 12:00N 22°07' E 114°33'612.2
2017-Oct-26 11:30N 22°07' E 114°40'612.2
2017-Oct-26 11:00N 22°08' E 114°46'612.1
2017-Oct-26 10:30N 22°10' E 114°53'612.4
2017-Oct-26 10:00N 22°10' E 114°59'612.1
2017-Oct-26 09:28N 22°12' E 115°06'712.7
2017-Oct-26 08:57N 22°13' E 115°13'612.7
2017-Oct-26 08:30N 22°14' E 115°19'19612.7
2017-Oct-25 17:05N 24°04' E 118°15'113.2
2017-Oct-25 17:00N 24°05' E 118°15'713.2
2017-Oct-25 16:28N 24°12' E 118°17'613.2
2017-Oct-25 16:00N 24°17' E 118°13'612.6
2017-Oct-25 15:30N 24°22' E 118°09'611.6
2017-Oct-25 15:00N 24°26' E 118°04'510.0
2017-Oct-25 14:30N 24°31' E 118°04'0 0.2
2017-Oct-25 13:50N 24°31' E 118°05'0 0.0
2017-Oct-25 12:50N 24°31' E 118°05'0 0.0
2017-Oct-25 12:29N 24°31' E 118°05'0 0.0
2017-Oct-25 11:53N 24°31' E 118°05'0 0.0
2017-Oct-25 11:17N 24°31' E 118°05'0 0.0
2017-Oct-25 09:02N 24°31' E 118°05'0 0.0
2017-Oct-25 08:47N 24°31' E 118°05'0 0.0
2017-Oct-25 08:05N 24°31' E 118°05'0 0.0
2017-Oct-25 07:56N 24°31' E 118°05'0 0.0
2017-Oct-25 04:17N 24°31' E 118°05'0 0.0
2017-Oct-25 03:41N 24°31' E 118°05'0 0.0
2017-Oct-25 03:29N 24°31' E 118°05'0 0.0
2017-Oct-25 01:20N 24°31' E 118°05'0 0.0
2017-Oct-25 00:59N 24°31' E 118°05'1 2.5
2017-Oct-25 00:30N 24°29' E 118°04'5 9.7
2017-Oct-25 00:01N 24°25' E 118°05'612.0
2017-Oct-24 23:31N 24°21' E 118°10'510.9
2017-Oct-24 23:00N 24°16' E 118°14'510.2
2017-Oct-24 22:31N 24°13' E 118°18'5 9.8
2017-Oct-24 22:00N 24°12' E 118°23'714.5
2017-Oct-24 21:30N 24°13' E 118°31'816.9
2017-Oct-24 21:00N 24°17' E 118°39'  
Track history (hours):
 
Tides and Currents Weather Stations Pressure Air Temp Water Temp Dewpoint Dewpoint Depression Visibility Wind Speed Wind Dir Waves Ship Positions

Kota Lumayan

Last reported at 2017-Nov-01 21:22 UTC. Time now 2017-Nov-25 00:14 UTC.
Position N 01°14' E 103°26'.
Warning: this ship's position is 23 days out of date.

Length 247 m; draft 12.8 m.

Type: Cargo ship. MMSI: 565323000.

Date/timePositionNaut miles runAvg speedWind from/ knotsBaromVisibWave heightAir tempDewpointWater temp
2017-Nov-01 21:22N 01°14' E 103°26'615.3
2017-Nov-01 20:57N 01°13' E 103°32'714.7
2017-Nov-01 20:30N 01°11' E 103°39'713.6
2017-Nov-01 19:58N 01°09' E 103°46'613.3
2017-Nov-01 19:30N 01°12' E 103°51'3 5.8
2017-Nov-01 19:00N 01°15' E 103°51'1 2.2
2017-Nov-01 18:26N 01°16' E 103°50'9 0.5
2017-Nov-01 02:00N 01°15' E 103°59'20 7.7
2017-Oct-31 23:23N 01°19' E 104°19'3 8.8
2017-Oct-31 22:59N 01°21' E 104°22'  
2017-Oct-27 23:02N 21°59' E 113°53'015.3
2017-Oct-27 23:01N 21°59' E 113°53'1013.6
2017-Oct-27 22:15N 22°09' E 113°50'416.2
2017-Oct-27 22:00N 22°13' E 113°49'815.8
2017-Oct-27 21:30N 22°21' E 113°47'714.5
2017-Oct-27 21:00N 22°28' E 113°45'714.8
2017-Oct-27 20:30N 22°35' E 113°43'4 7.5
2017-Oct-27 20:00N 22°38' E 113°41'0 0.1
2017-Oct-27 19:25N 22°38' E 113°41'0 0.0
2017-Oct-27 18:55N 22°38' E 113°41'0 0.0
2017-Oct-27 18:28N 22°38' E 113°41'0 0.0
2017-Oct-27 17:58N 22°38' E 113°41'0 0.0
2017-Oct-27 17:28N 22°38' E 113°41'0 0.0
2017-Oct-27 16:58N 22°38' E 113°41'0 0.0
2017-Oct-27 16:28N 22°38' E 113°41'0 0.0
2017-Oct-27 15:49N 22°38' E 113°41'0 0.0
2017-Oct-27 15:25N 22°38' E 113°41'0 0.0
2017-Oct-27 14:58N 22°38' E 113°41'0 0.0
2017-Oct-27 14:28N 22°38' E 113°41'0 0.0
2017-Oct-27 13:58N 22°38' E 113°41'0 0.0
2017-Oct-27 13:28N 22°38' E 113°41'0 0.0
2017-Oct-27 12:55N 22°38' E 113°41'0 0.0
2017-Oct-27 12:28N 22°38' E 113°41'0 0.5
2017-Oct-27 12:00N 22°38' E 113°41'4 8.7
2017-Oct-27 11:30N 22°34' E 113°43'714.8
2017-Oct-27 11:00N 22°27' E 113°45'714.9
2017-Oct-27 10:30N 22°20' E 113°48'815.6
2017-Oct-27 10:00N 22°12' E 113°50'713.3
2017-Oct-27 09:30N 22°06' E 113°51'3 1.4
2017-Oct-27 07:19N 22°05' E 113°55'0 0.1
2017-Oct-27 06:10N 22°05' E 113°55'0 0.1
2017-Oct-27 05:47N 22°05' E 113°55'17 5.0
2017-Oct-27 02:25N 22°21' E 114°01'410.7
2017-Oct-27 02:00N 22°21' E 113°57'5 9.3
2017-Oct-27 01:30N 22°24' E 113°53'3 5.2
2017-Oct-27 01:01N 22°27' E 113°53'0 0.1
2017-Oct-27 00:28N 22°27' E 113°53'0 0.0
2017-Oct-26 23:58N 22°27' E 113°53'0 0.0
2017-Oct-26 23:28N 22°27' E 113°53'0 0.0
2017-Oct-26 22:58N 22°27' E 113°53'0 0.0
2017-Oct-26 22:28N 22°27' E 113°53'0 0.0
2017-Oct-26 21:58N 22°27' E 113°53'0 0.0
2017-Oct-26 21:28N 22°27' E 113°53'0 0.0
2017-Oct-26 20:58N 22°27' E 113°53'0 0.0
2017-Oct-26 20:28N 22°27' E 113°53'0 0.0
2017-Oct-26 19:58N 22°27' E 113°53'0 0.0
2017-Oct-26 19:28N 22°27' E 113°53'0 0.0
2017-Oct-26 18:58N 22°27' E 113°53'0 0.0
2017-Oct-26 18:28N 22°27' E 113°53'0 0.0
2017-Oct-26 17:58N 22°27' E 113°53'0 0.0
2017-Oct-26 17:28N 22°27' E 113°53'0 0.6
2017-Oct-26 17:00N 22°27' E 113°53'3 5.6
2017-Oct-26 16:30N 22°24' E 113°54'4 7.1
2017-Oct-26 16:00N 22°21' E 113°56'25 8.8
2017-Oct-26 13:12N 22°08' E 114°19'711.0
2017-Oct-26 12:35N 22°08' E 114°26'111.9
2017-Oct-26 12:30N 22°08' E 114°27'611.3
2017-Oct-26 12:00N 22°07' E 114°33'612.2
2017-Oct-26 11:30N 22°07' E 114°40'612.2
2017-Oct-26 11:00N 22°08' E 114°46'612.1
2017-Oct-26 10:30N 22°10' E 114°53'612.4
2017-Oct-26 10:00N 22°10' E 114°59'612.1
2017-Oct-26 09:28N 22°12' E 115°06'712.7
2017-Oct-26 08:57N 22°13' E 115°13'612.7
2017-Oct-26 08:30N 22°14' E 115°19'19612.7
2017-Oct-25 17:05N 24°04' E 118°15'113.2
2017-Oct-25 17:00N 24°05' E 118°15'713.2
2017-Oct-25 16:28N 24°12' E 118°17'613.2
2017-Oct-25 16:00N 24°17' E 118°13'612.6
2017-Oct-25 15:30N 24°22' E 118°09'611.6
2017-Oct-25 15:00N 24°26' E 118°04'510.0
2017-Oct-25 14:30N 24°31' E 118°04'0 0.2
2017-Oct-25 13:50N 24°31' E 118°05'0 0.0
2017-Oct-25 12:50N 24°31' E 118°05'0 0.0
2017-Oct-25 12:29N 24°31' E 118°05'0 0.0
2017-Oct-25 11:53N 24°31' E 118°05'0 0.0
2017-Oct-25 11:17N 24°31' E 118°05'0 0.0
2017-Oct-25 09:02N 24°31' E 118°05'0 0.0
2017-Oct-25 08:47N 24°31' E 118°05'0 0.0
2017-Oct-25 08:05N 24°31' E 118°05'0 0.0
2017-Oct-25 07:56N 24°31' E 118°05'0 0.0
2017-Oct-25 04:17N 24°31' E 118°05'0 0.0
2017-Oct-25 03:41N 24°31' E 118°05'0 0.0
2017-Oct-25 03:29N 24°31' E 118°05'0 0.0
2017-Oct-25 01:20N 24°31' E 118°05'0 0.0
2017-Oct-25 00:59N 24°31' E 118°05'1 2.5
2017-Oct-25 00:30N 24°29' E 118°04'5 9.7
2017-Oct-25 00:01N 24°25' E 118°05'612.0
2017-Oct-24 23:31N 24°21' E 118°10'510.9
2017-Oct-24 23:00N 24°16' E 118°14'510.2
2017-Oct-24 22:31N 24°13' E 118°18'5 9.8
2017-Oct-24 22:00N 24°12' E 118°23'714.5
2017-Oct-24 21:30N 24°13' E 118°31'816.9
2017-Oct-24 21:00N 24°17' E 118°39'  

Dump ship's entire track history